Time;durP1;ratioP1;P1;durP2;ratioP2;P2;SDS_P1;SDS_P2;PMS_P1;PMS_P2;Temp;Humidity;BMP_temperature;BMP_pressure;BME280_temperature;BME280_humidity;BME280_pressure;Samples;Min_cycle;Max_cycle;Signal;HPM_P1;HPM_P2
2024/03/11 00:00:38;;;;;;;2.33;2.10;;;;;10.60;96755.00;;;;4877323;29;20102;-69
2024/03/11 00:03:07;;;;;;;2.20;2.00;;;;;10.60;96756.00;;;;4862851;29;20053;-69
2024/03/11 00:05:35;;;;;;;2.33;1.85;;;;;10.60;96755.00;;;;4864198;29;20554;-69
2024/03/11 00:08:02;;;;;;;2.55;2.00;;;;;10.50;96757.00;;;;4864353;29;20069;-69
2024/03/11 00:10:31;;;;;;;2.30;2.05;;;;;10.50;96756.00;;;;4863166;29;20041;-71
2024/03/11 00:12:57;;;;;;;2.05;1.85;;;;;10.50;96759.00;;;;4863409;29;20570;-69
2024/03/11 00:15:24;;;;;;;2.70;1.90;;;;;10.50;96765.00;;;;4879818;29;20055;-69
2024/03/11 00:17:51;;;;;;;2.72;2.30;;;;;10.50;96760.00;;;;4866281;29;20067;-70
2024/03/11 00:20:20;;;;;;;2.72;2.17;;;;;10.50;96772.00;;;;4863545;29;20049;-68
2024/03/11 00:22:48;;;;;;;1.90;1.80;;;;;10.50;96776.00;;;;4866412;29;20494;-68
2024/03/11 00:25:15;;;;;;;2.35;1.92;;;;;10.50;96778.00;;;;4862966;29;20096;-69
2024/03/11 00:27:41;;;;;;;2.88;2.10;;;;;10.60;96776.00;;;;4863394;29;20387;-68
2024/03/11 00:30:10;;;;;;;3.15;2.08;;;;;10.50;96774.00;;;;4864378;29;20455;-68
2024/03/11 00:32:44;;;;;;;2.10;1.90;;;;;10.50;96782.00;;;;4865910;29;20054;-68
2024/03/11 00:35:14;;;;;;;2.58;2.28;;;;;10.40;96781.00;;;;4881012;29;20057;-68
2024/03/11 00:37:41;;;;;;;2.80;2.22;;;;;10.40;96782.00;;;;4865436;29;20101;-68
2024/03/11 00:40:08;;;;;;;2.78;2.13;;;;;10.40;96791.00;;;;4880633;29;20061;-69
2024/03/11 00:42:38;;;;;;;2.28;2.00;;;;;10.40;96802.00;;;;4874801;29;20109;-68
2024/03/11 00:45:12;;;;;;;3.05;2.05;;;;;10.40;96795.00;;;;4849154;29;20057;-68
2024/03/11 00:47:39;;;;;;;2.05;1.85;;;;;10.30;96805.00;;;;4833693;29;20073;-68
2024/03/11 00:50:09;;;;;;;2.47;1.90;;;;;10.30;96819.00;;;;4849817;29;20046;-68
2024/03/11 00:52:37;;;;;;;2.35;1.90;;;;;10.10;96810.00;;;;4850206;29;20050;-67
2024/03/11 00:55:06;;;;;;;1.90;1.70;;;;;10.10;96811.00;;;;4848436;29;20558;-68
2024/03/11 00:57:35;;;;;;;1.65;1.55;;;;;10.10;96816.00;;;;4847857;29;20076;-68
2024/03/11 01:00:08;;;;;;;5.00;1.98;;;;;10.10;96815.00;;;;4848461;29;20046;-67
2024/03/11 01:02:35;;;;;;;3.08;1.95;;;;;10.10;96819.00;;;;4848708;29;20049;-68
2024/03/11 01:05:02;;;;;;;1.67;1.58;;;;;10.10;96812.00;;;;4848547;29;20050;-68
2024/03/11 01:07:29;;;;;;;2.10;1.90;;;;;10.00;96826.00;;;;4849655;29;20050;-68
2024/03/11 01:10:10;;;;;;;1.70;1.50;;;;;10.00;96818.00;;;;4848071;29;20071;-68
2024/03/11 01:12:37;;;;;;;2.80;1.77;;;;;9.90;96822.00;;;;4853085;29;20506;-68
2024/03/11 01:15:04;;;;;;;3.00;1.50;;;;;9.90;96829.00;;;;4879181;29;20463;-67
2024/03/11 01:17:30;;;;;;;4.05;1.73;;;;;9.90;96836.00;;;;4877713;29;20045;-69
2024/03/11 01:19:57;;;;;;;2.05;1.50;;;;;9.80;96836.00;;;;4879534;29;20049;-68
2024/03/11 01:22:24;;;;;;;1.40;1.30;;;;;9.90;96836.00;;;;4879057;29;20053;-68
2024/03/11 01:24:50;;;;;;;1.52;1.42;;;;;9.80;96833.00;;;;4867008;29;20105;-68
2024/03/11 01:27:17;;;;;;;1.98;1.70;;;;;9.80;96834.00;;;;4867226;29;20554;-69
2024/03/11 01:29:43;;;;;;;1.33;1.23;;;;;9.80;96837.00;;;;4880710;29;20064;-68
2024/03/11 01:32:13;;;;;;;2.35;1.23;;;;;9.80;96842.00;;;;4864449;29;20499;-68
2024/03/11 01:34:44;;;;;;;3.60;1.63;;;;;9.80;96845.00;;;;4862153;29;20045;-68
2024/03/11 01:37:11;;;;;;;1.50;1.40;;;;;9.80;96837.00;;;;4878034;29;20058;-68
2024/03/11 01:39:44;;;;;;;3.85;2.15;;;;;9.80;96845.00;;;;4864585;29;20561;-68
2024/03/11 01:42:15;;;;;;;1.90;1.80;;;;;9.80;96838.00;;;;4866842;29;20056;-68
2024/03/11 01:44:50;;;;;;;1.67;1.55;;;;;9.70;96841.00;;;;4866981;29;20053;-68
2024/03/11 01:47:21;;;;;;;1.40;1.30;;;;;9.70;96846.00;;;;4865461;29;20080;-68
2024/03/11 01:49:53;;;;;;;2.05;1.70;;;;;9.60;96848.00;;;;4877036;29;20057;-68
2024/03/11 01:52:31;;;;;;;3.88;1.67;;;;;9.60;96844.00;;;;4860160;29;20057;-69
2024/03/11 01:54:59;;;;;;;2.00;1.88;;;;;9.60;96846.00;;;;4861304;29;20050;-69
2024/03/11 01:57:26;;;;;;;2.13;1.90;;;;;9.60;96850.00;;;;4859649;29;20061;-68
2024/03/11 01:59:53;;;;;;;3.08;2.00;;;;;9.50;96852.00;;;;4859684;29;20090;-68
2024/03/11 02:02:20;;;;;;;2.55;2.22;;;;;9.60;96851.00;;;;4860756;29;20050;-68
2024/03/11 02:04:47;;;;;;;2.25;1.85;;;;;9.60;96850.00;;;;4860666;29;20113;-68
2024/03/11 02:07:15;;;;;;;3.22;2.30;;;;;9.70;96853.00;;;;4859630;29;20490;-68
2024/03/11 02:09:42;;;;;;;2.65;2.45;;;;;9.60;96859.00;;;;4859436;29;20102;-68
2024/03/11 02:12:17;;;;;;;3.30;3.00;;;;;9.60;96850.00;;;;4859116;29;20063;-70
2024/03/11 02:14:48;;;;;;;3.13;2.83;;;;;9.60;96850.00;;;;4842102;29;20058;-70
2024/03/11 02:17:15;;;;;;;3.15;2.85;;;;;9.60;96860.00;;;;4856327;29;20050;-70
2024/03/11 02:19:42;;;;;;;2.92;2.67;;;;;9.70;96848.00;;;;4842296;29;20122;-70
2024/03/11 02:22:09;;;;;;;3.22;2.92;;;;;9.80;96855.00;;;;4826625;29;20115;-70
2024/03/11 02:24:36;;;;;;;3.70;3.30;;;;;9.80;96863.00;;;;4842188;29;20121;-70
2024/03/11 02:27:02;;;;;;;5.30;3.15;;;;;9.80;96856.00;;;;4842331;29;20160;-70
2024/03/11 02:29:30;;;;;;;4.45;3.17;;;;;9.80;96855.00;;;;4842311;29;20049;-70
2024/03/11 02:31:57;;;;;;;5.38;3.03;;;;;9.80;96860.00;;;;4855676;29;20110;-70
2024/03/11 02:34:23;;;;;;;3.58;3.10;;;;;9.80;96859.00;;;;4841057;29;20567;-70
2024/03/11 02:36:55;;;;;;;3.50;2.88;;;;;9.80;96862.00;;;;4825932;29;20464;-70
2024/03/11 02:39:22;;;;;;;3.35;2.90;;;;;9.70;96867.00;;;;4855934;29;20144;-70
2024/03/11 02:41:51;;;;;;;3.38;2.97;;;;;9.70;96857.00;;;;4848892;29;20038;-70
2024/03/11 02:44:18;;;;;;;2.83;2.63;;;;;9.70;96856.00;;;;4822135;29;20054;-70
2024/03/11 02:46:44;;;;;;;2.97;2.78;;;;;9.70;96856.00;;;;4823625;29;20047;-71
2024/03/11 02:49:12;;;;;;;3.33;3.03;;;;;9.70;96870.00;;;;4837372;29;20057;-70
2024/03/11 02:51:41;;;;;;;3.22;2.92;;;;;9.70;96873.00;;;;4822703;29;20045;-69
2024/03/11 02:54:08;;;;;;;3.15;2.90;;;;;9.60;96868.00;;;;4822182;29;20175;-70
2024/03/11 02:56:36;;;;;;;3.42;3.13;;;;;9.70;96876.00;;;;4822321;29;20054;-70
2024/03/11 02:59:03;;;;;;;4.60;3.70;;;;;9.70;96870.00;;;;4822371;29;20054;-70
2024/03/11 03:01:30;;;;;;;4.15;3.75;;;;;9.70;96883.00;;;;4806749;29;20055;-70
2024/03/11 03:03:57;;;;;;;3.88;3.58;;;;;9.80;96883.00;;;;4822261;29;20137;-70
2024/03/11 03:06:23;;;;;;;4.15;3.85;;;;;9.80;96882.00;;;;4822737;29;20059;-70
2024/03/11 03:08:50;;;;;;;5.47;4.30;;;;;9.80;96877.00;;;;4822630;29;20137;-69
2024/03/11 03:11:16;;;;;;;4.90;4.40;;;;;9.80;96889.00;;;;4841110;29;20082;-70
2024/03/11 03:13:43;;;;;;;5.10;4.60;;;;;9.80;96899.00;;;;4869904;29;20065;-70
2024/03/11 03:16:10;;;;;;;5.35;4.85;;;;;9.90;96894.00;;;;4874071;29;20459;-70
2024/03/11 03:18:36;;;;;;;6.28;4.68;;;;;9.90;96887.00;;;;4859752;29;20045;-69
2024/03/11 03:21:03;;;;;;;5.22;4.57;;;;;9.90;96887.00;;;;4858065;29;20045;-70
2024/03/11 03:23:30;;;;;;;5.43;4.30;;;;;10.00;96890.00;;;;4859671;29;20105;-70
2024/03/11 03:25:57;;;;;;;4.30;3.90;;;;;9.90;96886.00;;;;4858399;29;20106;-69
2024/03/11 03:28:24;;;;;;;4.90;4.50;;;;;9.90;96892.00;;;;4858649;29;20073;-70
2024/03/11 03:30:53;;;;;;;4.80;4.30;;;;;9.90;96894.00;;;;4858332;29;20065;-70
2024/03/11 03:33:20;;;;;;;5.20;4.45;;;;;9.80;96890.00;;;;4873778;29;20053;-70
2024/03/11 03:35:47;;;;;;;6.68;5.07;;;;;9.90;96898.00;;;;4859916;29;20053;-70
2024/03/11 03:38:15;;;;;;;4.75;4.32;;;;;9.80;96895.00;;;;4859613;29;20059;-70
2024/03/11 03:40:42;;;;;;;5.35;4.85;;;;;9.80;96890.00;;;;4853803;29;20050;-70
2024/03/11 03:43:09;;;;;;;5.60;4.53;;;;;9.80;96891.00;;;;4850975;29;20049;-69
2024/03/11 03:45:35;;;;;;;5.15;4.55;;;;;9.80;96896.00;;;;4844617;29;20046;-69
2024/03/11 03:48:02;;;;;;;5.45;4.95;;;;;9.80;96897.00;;;;4843564;29;20078;-70
2024/03/11 03:50:29;;;;;;;5.03;4.60;;;;;9.80;96888.00;;;;4858843;29;20077;-70
2024/03/11 03:52:56;;;;;;;5.35;4.72;;;;;9.80;96890.00;;;;4843672;29;20133;-70
2024/03/11 03:55:24;;;;;;;6.53;4.97;;;;;9.80;96902.00;;;;4843389;29;20128;-70
2024/03/11 03:57:50;;;;;;;5.68;5.18;;;;;9.80;96902.00;;;;4843480;29;20089;-70
2024/03/11 04:00:17;;;;;;;5.93;5.38;;;;;9.80;96903.00;;;;4843651;29;20129;-70
2024/03/11 04:02:49;;;;;;;5.47;4.97;;;;;9.80;96909.00;;;;4846181;29;20057;-70
2024/03/11 04:05:18;;;;;;;7.45;5.15;;;;;9.80;96913.00;;;;4858683;29;20058;-70
2024/03/11 04:07:45;;;;;;;5.55;4.95;;;;;9.80;96907.00;;;;4842991;29;20049;-70
2024/03/11 04:10:13;;;;;;;6.35;5.53;;;;;9.90;96909.00;;;;4847855;29;20050;-70
2024/03/11 04:12:44;;;;;;;6.30;5.47;;;;;9.80;96914.00;;;;4869291;29;20057;-70
2024/03/11 04:15:17;;;;;;;6.50;5.90;;;;;9.80;96913.00;;;;4861658;29;20051;-70
2024/03/11 04:17:45;;;;;;;6.25;5.65;;;;;9.80;96917.00;;;;4877146;29;20054;-70
2024/03/11 04:20:13;;;;;;;6.50;5.88;;;;;9.70;96923.00;;;;4861283;29;20079;-70
2024/03/11 04:22:45;;;;;;;7.57;6.65;;;;;9.80;96926.00;;;;4862491;29;20049;-69
2024/03/11 04:25:16;;;;;;;8.82;6.28;;;;;9.70;96920.00;;;;4862469;29;20103;-69
2024/03/11 04:27:45;;;;;;;6.78;5.68;;;;;9.70;96913.00;;;;4862816;29;20045;-70
2024/03/11 04:30:15;;;;;;;6.20;5.60;;;;;9.70;96921.00;;;;4861258;29;20053;-67
2024/03/11 04:32:51;;;;;;;7.90;5.90;;;;;9.70;96922.00;;;;4862176;29;20502;-70
2024/03/11 04:35:26;;;;;;;7.55;6.00;;;;;9.80;96927.00;;;;4862241;29;20056;-69
2024/03/11 04:38:05;;;;;;;6.63;5.68;;;;;9.80;96922.00;;;;4862196;29;20566;-70
2024/03/11 04:40:33;;;;;;;6.15;5.28;;;;;9.70;96928.00;;;;4874726;29;20055;-71
2024/03/11 04:43:01;;;;;;;6.15;5.50;;;;;9.80;96916.00;;;;4851934;29;20052;-70
2024/03/11 04:45:28;;;;;;;5.40;4.90;;;;;9.80;96923.00;;;;4857614;29;20141;-70
2024/03/11 04:47:59;;;;;;;5.40;4.90;;;;;9.80;96920.00;;;;4857769;29;20077;-69
2024/03/11 04:50:27;;;;;;;6.45;5.05;;;;;9.70;96926.00;;;;4842550;29;20547;-70
2024/03/11 04:52:56;;;;;;;5.75;5.13;;;;;9.70;96932.00;;;;4844954;29;20087;-70
2024/03/11 04:55:27;;;;;;;5.65;5.05;;;;;9.80;96931.00;;;;4844838;29;20118;-70
2024/03/11 04:57:54;;;;;;;5.85;5.28;;;;;9.70;96932.00;;;;4842497;29;20106;-70
2024/03/11 05:00:26;;;;;;;6.55;5.53;;;;;9.70;96941.00;;;;4841987;29;20137;-70
2024/03/11 05:02:54;;;;;;;6.22;4.93;;;;;9.70;96944.00;;;;4827202;29;20148;-70
2024/03/11 05:05:21;;;;;;;6.22;5.22;;;;;9.60;96942.00;;;;4842064;29;20050;-70
2024/03/11 05:07:51;;;;;;;5.55;4.97;;;;;9.60;96944.00;;;;4841993;29;20086;-70
2024/03/11 05:10:17;;;;;;;7.72;5.72;;;;;9.70;96947.00;;;;4829521;29;20053;-70
2024/03/11 05:12:47;;;;;;;6.38;4.70;;;;;9.70;96951.00;;;;4846763;29;20563;-70
2024/03/11 05:15:16;;;;;;;5.85;5.30;;;;;9.70;96947.00;;;;4842832;29;20106;-70
2024/03/11 05:17:43;;;;;;;8.70;5.13;;;;;9.70;96952.00;;;;4857175;29;20136;-71
2024/03/11 05:20:14;;;;;;;6.57;5.45;;;;;9.60;96948.00;;;;4856981;29;20059;-70
2024/03/11 05:22:42;;;;;;;7.13;5.70;;;;;9.60;96959.00;;;;4842934;29;20050;-70
2024/03/11 05:25:11;;;;;;;5.95;5.05;;;;;9.60;96964.00;;;;4842865;29;20145;-69
2024/03/11 05:27:39;;;;;;;5.95;5.32;;;;;9.70;96961.00;;;;4841770;29;20053;-69
2024/03/11 05:30:07;;;;;;;7.25;6.00;;;;;9.70;96967.00;;;;4856947;29;20060;-70
2024/03/11 05:32:34;;;;;;;6.82;6.13;;;;;9.70;96963.00;;;;4841338;29;20418;-70
2024/03/11 05:35:02;;;;;;;7.13;5.72;;;;;9.70;96976.00;;;;4841362;29;20062;-69
2024/03/11 05:37:28;;;;;;;6.70;6.00;;;;;9.70;96967.00;;;;4841510;29;20137;-68
2024/03/11 05:39:56;;;;;;;7.22;6.40;;;;;9.70;96976.00;;;;4857327;29;20073;-69
2024/03/11 05:42:24;;;;;;;6.82;6.20;;;;;9.70;96973.00;;;;4853189;29;20052;-70
2024/03/11 05:44:51;;;;;;;9.07;7.20;;;;;9.70;96975.00;;;;4859765;29;20101;-69
2024/03/11 05:47:18;;;;;;;6.90;5.95;;;;;9.60;96987.00;;;;4860717;29;20521;-69
2024/03/11 05:49:44;;;;;;;7.47;6.68;;;;;9.60;96987.00;;;;4860642;29;20053;-70
2024/03/11 05:52:11;;;;;;;7.72;6.18;;;;;9.70;96986.00;;;;4860414;29;20045;-69
2024/03/11 05:54:50;;;;;;;7.40;6.65;;;;;9.70;96997.00;;;;4860761;29;20045;-69
2024/03/11 05:57:25;;;;;;;8.77;6.65;;;;;9.70;97001.00;;;;4860774;29;20114;-68
2024/03/11 05:59:53;;;;;;;6.85;5.97;;;;;9.70;97001.00;;;;4860706;29;20525;-68
2024/03/11 06:02:20;;;;;;;7.57;6.35;;;;;9.70;97006.00;;;;4858829;29;20045;-68
2024/03/11 06:04:47;;;;;;;7.88;6.90;;;;;9.70;97006.00;;;;4860552;29;20446;-69
2024/03/11 06:07:23;;;;;;;7.65;6.72;;;;;9.70;97003.00;;;;4860753;29;20056;-69
2024/03/11 06:09:51;;;;;;;7.57;6.60;;;;;9.70;97003.00;;;;4874480;29;20502;-67
2024/03/11 06:12:19;;;;;;;7.32;6.47;;;;;9.70;97013.00;;;;4852687;29;20041;-68
2024/03/11 06:14:47;;;;;;;8.05;6.68;;;;;9.70;97010.00;;;;4874716;29;20049;-69
2024/03/11 06:17:15;;;;;;;7.90;6.75;;;;;9.70;97013.00;;;;4859229;29;20482;-68
2024/03/11 06:19:44;;;;;;;6.97;6.25;;;;;9.70;97018.00;;;;4860570;29;20570;-69
2024/03/11 06:22:15;;;;;;;8.88;7.72;;;;;9.70;97017.00;;;;4859066;29;20076;-68
2024/03/11 06:24:42;;;;;;;7.38;6.65;;;;;9.60;97030.00;;;;4874575;29;20081;-69
2024/03/11 06:27:08;;;;;;;7.95;7.15;;;;;9.60;97030.00;;;;4859202;29;20148;-69
2024/03/11 06:29:35;;;;;;;9.00;7.45;;;;;9.70;97025.00;;;;4858955;29;20494;-69
2024/03/11 06:32:05;;;;;;;8.65;7.70;;;;;9.70;97034.00;;;;4862698;29;20046;-69
2024/03/11 06:34:34;;;;;;;12.75;8.38;;;;;9.70;97035.00;;;;4864703;29;20080;-69
2024/03/11 06:37:02;;;;;;;9.30;7.95;;;;;9.70;97042.00;;;;4863457;29;20049;-69
2024/03/11 06:39:31;;;;;;;12.35;8.88;;;;;9.70;97041.00;;;;4860433;29;20105;-68
2024/03/11 06:42:00;;;;;;;9.98;8.35;;;;;9.80;97047.00;;;;4849977;29;20066;-68
2024/03/11 06:44:27;;;;;;;8.77;7.72;;;;;9.80;97051.00;;;;4859832;29;20045;-68
2024/03/11 06:47:06;;;;;;;9.70;7.43;;;;;9.80;97048.00;;;;4860451;29;20069;-68
2024/03/11 06:49:32;;;;;;;11.05;8.65;;;;;9.80;97053.00;;;;4858812;29;20545;-68
2024/03/11 06:51:59;;;;;;;10.02;7.72;;;;;9.80;97062.00;;;;4858180;29;20041;-67
2024/03/11 06:54:26;;;;;;;10.60;8.45;;;;;9.80;97067.00;;;;4858611;29;20106;-67
2024/03/11 06:56:53;;;;;;;10.70;8.52;;;;;9.80;97063.00;;;;4858997;29;20517;-68
2024/03/11 06:59:20;;;;;;;9.68;8.57;;;;;9.80;97068.00;;;;4858845;29;20060;-67
2024/03/11 07:01:51;;;;;;;10.65;8.38;;;;;9.80;97069.00;;;;4858448;29;20041;-68
2024/03/11 07:04:19;;;;;;;9.80;8.40;;;;;9.80;97077.00;;;;4858530;29;20129;-68
2024/03/11 07:06:46;;;;;;;8.95;7.38;;;;;9.80;97079.00;;;;4859736;29;20098;-67
2024/03/11 07:09:15;;;;;;;9.20;8.20;;;;;9.80;97076.00;;;;4859752;29;20467;-67
2024/03/11 07:11:42;;;;;;;7.85;6.85;;;;;9.80;97080.00;;;;4850421;29;20046;-66
2024/03/11 07:14:13;;;;;;;8.93;7.82;;;;;9.80;97081.00;;;;4859845;29;20041;-66
2024/03/11 07:16:42;;;;;;;9.20;7.55;;;;;9.80;97083.00;;;;4862504;29;20425;-67
2024/03/11 07:19:10;;;;;;;9.00;7.78;;;;;9.80;97082.00;;;;4864908;29;20114;-67
2024/03/11 07:21:37;;;;;;;9.65;7.63;;;;;9.90;97085.00;;;;4878782;29;20053;-68
2024/03/11 07:24:05;;;;;;;8.25;7.28;;;;;10.00;97093.00;;;;4878985;29;20121;-68
2024/03/11 07:26:32;;;;;;;8.70;7.05;;;;;9.90;97088.00;;;;4879071;29;20053;-68
2024/03/11 07:28:58;;;;;;;9.40;7.05;;;;;9.90;97099.00;;;;4865826;29;20053;-68
2024/03/11 07:31:25;;;;;;;9.95;7.90;;;;;9.90;97093.00;;;;4869548;29;20045;-69
2024/03/11 07:33:52;;;;;;;12.55;7.82;;;;;9.90;97095.00;;;;4866059;29;20049;-67
2024/03/11 07:36:19;;;;;;;8.52;7.10;;;;;9.90;97096.00;;;;4869627;29;20116;-67
2024/03/11 07:38:46;;;;;;;10.60;7.30;;;;;10.00;97116.00;;;;4866183;29;20049;-67
2024/03/11 07:41:14;;;;;;;8.40;7.50;;;;;9.90;97117.00;;;;4859864;29;20134;-67
2024/03/11 07:43:41;;;;;;;9.07;7.28;;;;;10.00;97112.00;;;;4869904;29;20101;-67
2024/03/11 07:46:09;;;;;;;8.88;6.57;;;;;10.10;97129.00;;;;4869483;29;20054;-67
2024/03/11 07:48:36;;;;;;;9.48;7.00;;;;;10.10;97133.00;;;;4863030;29;20509;-67
2024/03/11 07:51:04;;;;;;;7.45;6.75;;;;;10.10;97138.00;;;;4863235;29;20102;-68
2024/03/11 07:53:30;;;;;;;9.13;6.82;;;;;10.10;97139.00;;;;4877368;29;20053;-67
2024/03/11 07:55:57;;;;;;;7.55;6.53;;;;;10.20;97143.00;;;;4877290;29;20098;-68
2024/03/11 07:58:24;;;;;;;6.53;5.88;;;;;10.30;97148.00;;;;4862967;29;20097;-68
2024/03/11 08:00:51;;;;;;;7.47;6.45;;;;;10.40;97152.00;;;;4861438;29;20149;-70
2024/03/11 08:03:19;;;;;;;6.50;5.90;;;;;10.50;97161.00;;;;4861699;29;20386;-70
2024/03/11 08:05:46;;;;;;;7.55;6.50;;;;;10.50;97164.00;;;;4863248;29;20049;-71
2024/03/11 08:08:13;;;;;;;8.65;6.20;;;;;10.60;97167.00;;;;4863395;29;20049;-70
2024/03/11 08:10:40;;;;;;;7.68;6.85;;;;;10.60;97169.00;;;;4862136;29;20060;-70
2024/03/11 08:13:11;;;;;;;9.05;6.25;;;;;10.70;97167.00;;;;4860785;29;20051;-70
2024/03/11 08:15:39;;;;;;;6.45;5.82;;;;;10.70;97174.00;;;;4885801;29;20182;-70
2024/03/11 08:18:06;;;;;;;6.63;5.65;;;;;10.70;97181.00;;;;4863884;29;20071;-71
2024/03/11 08:20:34;;;;;;;7.68;5.97;;;;;10.60;97192.00;;;;4862838;29;20513;-71
2024/03/11 08:23:01;;;;;;;7.40;5.43;;;;;10.50;97189.00;;;;4862763;29;20138;-70
2024/03/11 08:25:28;;;;;;;8.07;5.75;;;;;10.40;97194.00;;;;4860959;29;20050;-70
2024/03/11 08:27:55;;;;;;;6.57;5.57;;;;;10.50;97195.00;;;;4862639;29;20045;-69
2024/03/11 08:30:27;;;;;;;6.90;5.43;;;;;10.60;97197.00;;;;4860739;29;20057;-71
2024/03/11 08:32:56;;;;;;;6.93;4.85;;;;;10.70;97206.00;;;;4860991;29;20406;-70
2024/03/11 08:35:25;;;;;;;9.05;5.55;;;;;10.80;97199.00;;;;4862414;29;20451;-70
2024/03/11 08:37:52;;;;;;;6.53;4.88;;;;;11.00;97212.00;;;;4862156;29;20049;-70
2024/03/11 08:40:21;;;;;;;7.43;5.00;;;;;11.20;97207.00;;;;4859725;29;20136;-70
2024/03/11 08:42:50;;;;;;;6.15;4.68;;;;;11.30;97213.00;;;;4853098;29;20050;-70
2024/03/11 08:45:18;;;;;;;7.63;5.38;;;;;11.50;97214.00;;;;4860806;29;20072;-70
2024/03/11 08:47:46;;;;;;;5.68;4.72;;;;;11.80;97219.00;;;;4860655;29;20049;-70
2024/03/11 08:50:16;;;;;;;5.57;5.00;;;;;11.90;97211.00;;;;4876006;29;20144;-70
2024/03/11 08:52:46;;;;;;;5.88;5.13;;;;;12.10;97217.00;;;;4860574;29;20054;-70
2024/03/11 08:55:15;;;;;;;4.82;4.43;;;;;12.40;97220.00;;;;4861720;29;20517;-70
2024/03/11 08:57:45;;;;;;;5.65;5.07;;;;;12.40;97225.00;;;;4876130;29;20057;-70
2024/03/11 09:00:15;;;;;;;5.88;4.50;;;;;12.50;97235.00;;;;4861705;29;20049;-70
2024/03/11 09:02:44;;;;;;;4.40;4.00;;;;;12.50;97234.00;;;;4861690;29;20049;-70
2024/03/11 09:05:18;;;;;;;5.80;5.22;;;;;12.50;97245.00;;;;4860732;29;20041;-70
2024/03/11 09:07:47;;;;;;;5.53;4.60;;;;;12.70;97243.00;;;;4861142;29;20071;-70
2024/03/11 09:10:14;;;;;;;12.80;7.10;;;;;12.90;97238.00;;;;4859399;29;20057;-70
2024/03/11 09:12:42;;;;;;;6.40;5.80;;;;;13.00;97253.00;;;;4853141;29;20133;-70
2024/03/11 09:15:16;;;;;;;5.10;4.60;;;;;13.30;97247.00;;;;4861916;29;20052;-71
2024/03/11 09:17:49;;;;;;;6.32;4.38;;;;;13.50;97255.00;;;;4877206;29;20053;-70
2024/03/11 09:20:20;;;;;;;5.80;3.90;;;;;13.60;97256.00;;;;4861866;29;20065;-70
2024/03/11 09:22:48;;;;;;;4.40;3.78;;;;;13.60;97257.00;;;;4845529;29;20125;-70
2024/03/11 09:25:22;;;;;;;4.55;3.30;;;;;13.70;97256.00;;;;4876580;29;20488;-70
2024/03/11 09:28:00;;;;;;;3.67;3.38;;;;;13.90;97259.00;;;;4861044;29;20064;-70
2024/03/11 09:30:31;;;;;;;3.58;3.00;;;;;14.10;97263.00;;;;4862690;29;20116;-70
2024/03/11 09:32:58;;;;;;;3.33;2.78;;;;;14.10;97261.00;;;;4861669;29;20049;-70
2024/03/11 09:35:25;;;;;;;4.82;3.40;;;;;14.30;97271.00;;;;4861406;29;20092;-71
2024/03/11 09:37:52;;;;;;;5.05;4.25;;;;;14.30;97277.00;;;;4861043;29;20053;-71
2024/03/11 09:40:20;;;;;;;5.22;2.70;;;;;14.30;97283.00;;;;4896942;23;20049;-67
2024/03/11 09:42:54;;;;;;;4.50;2.83;;;;;14.20;97287.00;;;;4859345;29;20122;-66
2024/03/11 09:45:24;;;;;;;4.03;2.97;;;;;14.20;97292.00;;;;4860694;29;20056;-67
2024/03/11 09:47:52;;;;;;;5.78;3.13;;;;;14.30;97301.00;;;;4860800;29;20075;-67
2024/03/11 09:50:30;;;;;;;3.72;2.60;;;;;14.20;97305.00;;;;4860795;29;20512;-66
2024/03/11 09:53:02;;;;;;;3.42;2.05;;;;;14.10;97300.00;;;;4859291;29;20056;-66
2024/03/11 09:55:30;;;;;;;4.00;2.67;;;;;14.00;97301.00;;;;4844188;29;20098;-66
2024/03/11 09:58:10;;;;;;;2.65;2.45;;;;;13.80;97311.00;;;;5108619;27;20459;-67
2024/03/11 10:00:48;;;;;;;2.78;2.50;;;;;13.80;97309.00;;;;5104777;28;20440;-66
2024/03/11 10:03:20;;;;;;;2.95;2.60;;;;;13.70;97322.00;;;;5089562;28;20066;-67
2024/03/11 10:05:57;;;;;;;3.10;2.75;;;;;13.60;97329.00;;;;5089656;28;20127;-67
2024/03/11 10:08:25;;;;;;;4.18;2.40;;;;;13.60;97329.00;;;;5090043;28;20051;-66
2024/03/11 10:11:11;;;;;;;4.30;2.65;;;;;13.70;97329.00;;;;5088045;28;20139;-66
2024/03/11 10:13:38;;;;;;;2.80;2.50;;;;;13.60;97329.00;;;;5089181;28;20115;-67
2024/03/11 10:16:18;;;;;;;4.10;2.75;;;;;13.70;97322.00;;;;5089250;28;20551;-66
2024/03/11 10:19:02;;;;;;;3.65;2.47;;;;;14.00;97326.00;;;;5088162;28;20516;-67
2024/03/11 10:21:33;;;;;;;2.92;2.58;;;;;13.90;97327.00;;;;5089229;28;20047;-67
2024/03/11 10:24:01;;;;;;;4.18;2.70;;;;;13.90;97324.00;;;;5088013;28;20052;-66
2024/03/11 10:26:33;;;;;;;6.55;2.85;;;;;14.00;97327.00;;;;5089189;28;20043;-66
2024/03/11 10:29:00;;;;;;;2.35;2.13;;;;;14.20;97325.00;;;;5089567;28;20502;-66
2024/03/11 10:31:31;;;;;;;3.78;2.63;;;;;14.40;97330.00;;;;5070929;28;20106;-67
2024/03/11 10:34:12;;;;;;;4.35;2.70;;;;;14.50;97333.00;;;;5089004;28;20479;-66
2024/03/11 10:36:46;;;;;;;2.92;2.58;;;;;14.60;97339.00;;;;5087696;28;20040;-66
2024/03/11 10:39:25;;;;;;;2.67;2.45;;;;;14.70;97341.00;;;;5087655;28;20071;-67
2024/03/11 10:41:53;;;;;;;3.17;2.30;;;;;14.80;97339.00;;;;5087678;28;20123;-65
2024/03/11 10:44:29;;;;;;;2.70;2.47;;;;;14.90;97342.00;;;;5087488;28;20047;-66
2024/03/11 10:47:10;;;;;;;3.25;2.50;;;;;14.90;97352.00;;;;5087753;28;20097;-65
2024/03/11 10:49:40;;;;;;;4.13;3.03;;;;;14.90;97343.00;;;;5087753;28;20076;-66
2024/03/11 10:52:14;;;;;;;2.60;2.40;;;;;14.80;97347.00;;;;5087842;28;20059;-66
2024/03/11 10:54:42;;;;;;;3.42;2.75;;;;;14.70;97349.00;;;;5088857;28;20048;-66
2024/03/11 10:57:38;;;;;;;2.80;2.60;;;;;14.80;97349.00;;;;5087505;28;20044;-67
2024/03/11 11:02:49;;;;;;;3.22;2.50;;;;;14.90;97354.00;;;;5088624;28;20474;-67
2024/03/11 11:05:18;;;;;;;3.65;2.50;;;;;14.80;97349.00;;;;5070619;28;20052;-66
2024/03/11 11:07:46;;;;;;;2.72;2.20;;;;;14.90;97351.00;;;;5084392;28;20114;-67
2024/03/11 11:10:17;;;;;;;2.67;2.25;;;;;15.00;97347.00;;;;5074931;28;20040;-66
2024/03/11 11:12:44;;;;;;;2.35;2.08;;;;;15.20;97351.00;;;;5074957;28;20045;-66
2024/03/11 11:15:15;;;;;;;2.47;2.22;;;;;15.30;97349.00;;;;5074772;28;20051;-67
2024/03/11 11:17:42;;;;;;;4.05;2.30;;;;;15.50;97353.00;;;;5073577;28;20099;-67
2024/03/11 11:20:47;;;;;;;2.42;2.20;;;;;15.60;97361.00;;;;5074483;28;20090;-67
2024/03/11 11:23:05;;;;;;;3.38;2.20;;;;;15.50;97355.00;;;;5072659;28;20074;-66
2024/03/11 11:25:39;;;;;;;2.03;1.80;;;;;15.70;97351.00;;;;5073736;28;20037;-67
2024/03/11 11:28:13;;;;;;;6.00;3.13;;;;;15.90;97350.00;;;;5074664;28;20135;-67
2024/03/11 11:30:42;;;;;;;4.57;2.65;;;;;16.00;97360.00;;;;5074170;28;20386;-67
2024/03/11 11:33:12;;;;;;;4.80;2.80;;;;;16.00;97348.00;;;;5073361;28;20072;-68
2024/03/11 11:35:44;;;;;;;4.85;2.50;;;;;16.20;97360.00;;;;5074397;28;20040;-68
2024/03/11 11:38:37;;;;;;;4.03;2.65;;;;;16.40;97351.00;;;;5073199;28;20480;-66
2024/03/11 11:41:34;;;;;;;6.40;2.60;;;;;16.50;97349.00;;;;5072480;28;20135;-66
2024/03/11 11:44:01;;;;;;;3.97;2.47;;;;;16.70;97349.00;;;;5074327;28;20044;-66
2024/03/11 11:46:46;;;;;;;2.42;2.10;;;;;16.70;97354.00;;;;5073113;28;20071;-66
2024/03/11 11:49:18;;;;;;;2.53;2.03;;;;;16.80;97357.00;;;;5073293;28;20041;-66
2024/03/11 11:51:46;;;;;;;3.63;2.80;;;;;16.90;97360.00;;;;5056244;28;20394;-66
2024/03/11 11:54:26;;;;;;;2.83;2.60;;;;;17.10;97357.00;;;;5073952;28;20056;-66
2024/03/11 11:56:59;;;;;;;3.80;2.50;;;;;17.20;97357.00;;;;5056832;28;20048;-66
2024/03/11 11:59:27;;;;;;;2.90;2.10;;;;;17.10;97361.00;;;;5072654;28;20131;-66
2024/03/11 12:01:54;;;;;;;2.75;2.25;;;;;17.10;97363.00;;;;5074181;28;20484;-66
2024/03/11 12:04:20;;;;;;;3.08;2.15;;;;;17.00;97380.00;;;;5056127;28;20056;-66
2024/03/11 12:06:50;;;;;;;2.95;2.33;;;;;16.80;97376.00;;;;5074042;28;20090;-65
2024/03/11 12:09:17;;;;;;;5.20;2.50;;;;;16.50;97394.00;;;;5072520;28;20045;-66
2024/03/11 12:11:49;;;;;;;4.00;2.30;;;;;16.10;97388.00;;;;5073505;28;20054;-66
2024/03/11 12:14:16;;;;;;;3.13;2.40;;;;;15.80;97396.00;;;;5072561;28;20041;-66
2024/03/11 12:16:42;;;;;;;2.50;2.30;;;;;15.40;97395.00;;;;5073667;28;20087;-66
2024/03/11 12:19:09;;;;;;;2.90;2.60;;;;;15.00;97393.00;;;;5072114;28;20044;-66
2024/03/11 12:21:41;;;;;;;4.03;2.80;;;;;14.80;97401.00;;;;5072922;28;20420;-66
2024/03/11 12:24:14;;;;;;;3.10;2.30;;;;;15.00;97404.00;;;;5072562;28;20580;-67
2024/03/11 12:26:47;;;;;;;2.80;2.53;;;;;15.10;97405.00;;;;5072340;28;20044;-67
2024/03/11 12:29:19;;;;;;;2.50;2.30;;;;;15.20;97395.00;;;;5072503;28;20040;-68
2024/03/11 12:31:58;;;;;;;4.28;2.35;;;;;15.50;97392.00;;;;5073338;28;20106;-67
2024/03/11 12:34:26;;;;;;;3.45;2.20;;;;;15.50;97395.00;;;;5073286;28;20044;-68